sensor_id;sensor_type;location;lat;lon;timestamp;P1;durP1;ratioP1;P2;durP2;ratioP2
59770;SDS011;45649;53.014;6.600;2023-06-14T00:01:37;6.83;;;1.80;;
59770;SDS011;45649;53.014;6.600;2023-06-14T00:04:03;5.20;;;2.00;;
59770;SDS011;45649;53.014;6.600;2023-06-14T00:06:30;7.27;;;1.87;;
59770;SDS011;45649;53.014;6.600;2023-06-14T00:08:58;4.57;;;1.70;;
59770;SDS011;45649;53.014;6.600;2023-06-14T00:11:24;6.00;;;2.13;;
59770;SDS011;45649;53.014;6.600;2023-06-14T00:13:51;2.20;;;1.80;;
59770;SDS011;45649;53.014;6.600;2023-06-14T00:16:18;5.73;;;1.53;;
59770;SDS011;45649;53.014;6.600;2023-06-14T00:18:44;3.77;;;1.70;;
59770;SDS011;45649;53.014;6.600;2023-06-14T00:21:11;3.80;;;1.93;;
59770;SDS011;45649;53.014;6.600;2023-06-14T00:23:37;2.83;;;1.93;;
59770;SDS011;45649;53.014;6.600;2023-06-14T00:26:03;8.30;;;2.00;;
59770;SDS011;45649;53.014;6.600;2023-06-14T00:28:29;4.83;;;2.10;;
59770;SDS011;45649;53.014;6.600;2023-06-14T00:30:54;1.90;;;1.73;;
59770;SDS011;45649;53.014;6.600;2023-06-14T00:33:20;2.60;;;2.00;;
59770;SDS011;45649;53.014;6.600;2023-06-14T00:35:46;5.67;;;1.70;;
59770;SDS011;45649;53.014;6.600;2023-06-14T00:38:12;3.87;;;1.97;;
59770;SDS011;45649;53.014;6.600;2023-06-14T00:40:38;3.33;;;2.13;;
59770;SDS011;45649;53.014;6.600;2023-06-14T00:43:03;2.93;;;1.97;;
59770;SDS011;45649;53.014;6.600;2023-06-14T00:45:29;2.40;;;1.70;;
59770;SDS011;45649;53.014;6.600;2023-06-14T00:47:56;1.80;;;1.70;;
59770;SDS011;45649;53.014;6.600;2023-06-14T00:50:22;4.37;;;2.20;;
59770;SDS011;45649;53.014;6.600;2023-06-14T00:52:49;2.00;;;1.80;;
59770;SDS011;45649;53.014;6.600;2023-06-14T00:55:15;2.13;;;1.77;;
59770;SDS011;45649;53.014;6.600;2023-06-14T00:57:41;2.70;;;2.20;;
59770;SDS011;45649;53.014;6.600;2023-06-14T01:00:07;2.60;;;1.80;;
59770;SDS011;45649;53.014;6.600;2023-06-14T01:02:38;2.30;;;2.10;;
59770;SDS011;45649;53.014;6.600;2023-06-14T01:05:05;4.33;;;1.63;;
59770;SDS011;45649;53.014;6.600;2023-06-14T01:13:07;2.77;;;1.80;;
59770;SDS011;45649;53.014;6.600;2023-06-14T01:15:38;2.20;;;1.77;;
59770;SDS011;45649;53.014;6.600;2023-06-14T01:18:06;4.17;;;1.80;;
59770;SDS011;45649;53.014;6.600;2023-06-14T01:20:32;2.60;;;1.93;;
59770;SDS011;45649;53.014;6.600;2023-06-14T01:23:02;2.40;;;2.20;;
59770;SDS011;45649;53.014;6.600;2023-06-14T01:25:28;2.53;;;2.03;;
59770;SDS011;45649;53.014;6.600;2023-06-14T01:28:12;3.27;;;2.00;;
59770;SDS011;45649;53.014;6.600;2023-06-14T01:30:41;4.30;;;2.50;;
59770;SDS011;45649;53.014;6.600;2023-06-14T01:33:17;5.90;;;3.03;;
59770;SDS011;45649;53.014;6.600;2023-06-14T01:35:46;4.67;;;2.40;;
59770;SDS011;45649;53.014;6.600;2023-06-14T01:38:13;5.77;;;2.63;;
59770;SDS011;45649;53.014;6.600;2023-06-14T01:40:43;4.07;;;2.47;;
59770;SDS011;45649;53.014;6.600;2023-06-14T01:43:10;3.63;;;2.37;;
59770;SDS011;45649;53.014;6.600;2023-06-14T01:45:40;3.20;;;2.30;;
59770;SDS011;45649;53.014;6.600;2023-06-14T01:48:08;5.10;;;2.30;;
59770;SDS011;45649;53.014;6.600;2023-06-14T01:50:34;3.83;;;2.30;;
59770;SDS011;45649;53.014;6.600;2023-06-14T01:53:00;4.60;;;2.30;;
59770;SDS011;45649;53.014;6.600;2023-06-14T01:55:26;4.83;;;2.70;;
59770;SDS011;45649;53.014;6.600;2023-06-14T01:57:52;4.67;;;2.50;;
59770;SDS011;45649;53.014;6.600;2023-06-14T02:00:18;5.70;;;2.20;;
59770;SDS011;45649;53.014;6.600;2023-06-14T02:02:45;2.47;;;2.10;;
59770;SDS011;45649;53.014;6.600;2023-06-14T02:05:11;5.18;;;2.50;;
59770;SDS011;45649;53.014;6.600;2023-06-14T02:07:36;3.43;;;2.30;;
59770;SDS011;45649;53.014;6.600;2023-06-14T02:10:03;3.73;;;2.30;;
59770;SDS011;45649;53.014;6.600;2023-06-14T02:12:29;4.93;;;2.30;;
59770;SDS011;45649;53.014;6.600;2023-06-14T02:14:55;3.93;;;2.10;;
59770;SDS011;45649;53.014;6.600;2023-06-14T02:17:21;3.70;;;2.20;;
59770;SDS011;45649;53.014;6.600;2023-06-14T02:19:48;2.17;;;2.00;;
59770;SDS011;45649;53.014;6.600;2023-06-14T02:22:14;6.97;;;2.40;;
59770;SDS011;45649;53.014;6.600;2023-06-14T02:24:40;5.03;;;2.13;;
59770;SDS011;45649;53.014;6.600;2023-06-14T02:27:07;2.40;;;2.00;;
59770;SDS011;45649;53.014;6.600;2023-06-14T02:29:35;2.20;;;2.10;;
59770;SDS011;45649;53.014;6.600;2023-06-14T02:32:01;2.93;;;2.20;;
59770;SDS011;45649;53.014;6.600;2023-06-14T02:34:27;3.57;;;2.00;;
59770;SDS011;45649;53.014;6.600;2023-06-14T02:36:53;5.60;;;2.20;;
59770;SDS011;45649;53.014;6.600;2023-06-14T02:39:20;3.27;;;2.20;;
59770;SDS011;45649;53.014;6.600;2023-06-14T02:41:48;2.47;;;2.07;;
59770;SDS011;45649;53.014;6.600;2023-06-14T02:44:17;3.70;;;2.20;;
59770;SDS011;45649;53.014;6.600;2023-06-14T02:46:44;2.10;;;2.00;;
59770;SDS011;45649;53.014;6.600;2023-06-14T02:49:10;3.50;;;2.20;;
59770;SDS011;45649;53.014;6.600;2023-06-14T02:51:36;2.53;;;2.33;;
59770;SDS011;45649;53.014;6.600;2023-06-14T02:54:02;2.20;;;2.10;;
59770;SDS011;45649;53.014;6.600;2023-06-14T02:56:28;3.00;;;2.30;;
59770;SDS011;45649;53.014;6.600;2023-06-14T02:58:54;2.50;;;2.30;;
59770;SDS011;45649;53.014;6.600;2023-06-14T03:01:20;4.93;;;2.37;;
59770;SDS011;45649;53.014;6.600;2023-06-14T03:03:46;2.43;;;2.20;;
59770;SDS011;45649;53.014;6.600;2023-06-14T03:06:12;3.73;;;2.30;;
59770;SDS011;45649;53.014;6.600;2023-06-14T03:08:39;3.53;;;2.20;;
59770;SDS011;45649;53.014;6.600;2023-06-14T03:11:06;3.80;;;2.10;;
59770;SDS011;45649;53.014;6.600;2023-06-14T03:13:34;2.47;;;2.27;;
59770;SDS011;45649;53.014;6.600;2023-06-14T03:16:00;2.60;;;2.30;;
59770;SDS011;45649;53.014;6.600;2023-06-14T03:18:31;2.50;;;2.30;;
59770;SDS011;45649;53.014;6.600;2023-06-14T03:21:00;7.40;;;2.60;;
59770;SDS011;45649;53.014;6.600;2023-06-14T03:23:26;4.57;;;2.30;;
59770;SDS011;45649;53.014;6.600;2023-06-14T03:25:52;2.67;;;2.40;;
59770;SDS011;45649;53.014;6.600;2023-06-14T03:28:18;3.73;;;2.37;;
59770;SDS011;45649;53.014;6.600;2023-06-14T03:30:44;6.67;;;2.37;;
59770;SDS011;45649;53.014;6.600;2023-06-14T03:33:09;4.43;;;2.60;;
59770;SDS011;45649;53.014;6.600;2023-06-14T03:35:35;5.07;;;2.47;;
59770;SDS011;45649;53.014;6.600;2023-06-14T03:38:01;6.20;;;2.87;;
59770;SDS011;45649;53.014;6.600;2023-06-14T03:40:28;4.13;;;2.50;;
59770;SDS011;45649;53.014;6.600;2023-06-14T03:42:54;3.77;;;2.80;;
59770;SDS011;45649;53.014;6.600;2023-06-14T03:45:20;2.63;;;2.43;;
59770;SDS011;45649;53.014;6.600;2023-06-14T03:47:46;5.03;;;2.60;;
59770;SDS011;45649;53.014;6.600;2023-06-14T03:50:12;5.37;;;2.60;;
59770;SDS011;45649;53.014;6.600;2023-06-14T03:52:38;3.00;;;2.70;;
59770;SDS011;45649;53.014;6.600;2023-06-14T03:55:04;4.50;;;2.20;;
59770;SDS011;45649;53.014;6.600;2023-06-14T03:57:30;4.20;;;2.60;;
59770;SDS011;45649;53.014;6.600;2023-06-14T03:59:56;3.47;;;2.60;;
59770;SDS011;45649;53.014;6.600;2023-06-14T04:02:21;3.07;;;2.77;;
59770;SDS011;45649;53.014;6.600;2023-06-14T04:04:47;4.67;;;2.77;;
59770;SDS011;45649;53.014;6.600;2023-06-14T04:07:16;4.43;;;2.80;;
59770;SDS011;45649;53.014;6.600;2023-06-14T04:09:45;3.10;;;2.67;;
59770;SDS011;45649;53.014;6.600;2023-06-14T04:12:11;3.23;;;2.80;;
59770;SDS011;45649;53.014;6.600;2023-06-14T04:14:37;4.33;;;2.60;;
59770;SDS011;45649;53.014;6.600;2023-06-14T04:17:03;2.90;;;2.67;;
59770;SDS011;45649;53.014;6.600;2023-06-14T04:19:29;2.63;;;2.47;;
59770;SDS011;45649;53.014;6.600;2023-06-14T04:21:55;2.70;;;2.50;;
59770;SDS011;45649;53.014;6.600;2023-06-14T04:24:21;3.43;;;2.67;;
59770;SDS011;45649;53.014;6.600;2023-06-14T04:26:48;3.43;;;2.80;;
59770;SDS011;45649;53.014;6.600;2023-06-14T04:29:14;6.00;;;2.77;;
59770;SDS011;45649;53.014;6.600;2023-06-14T04:31:41;2.80;;;2.60;;
59770;SDS011;45649;53.014;6.600;2023-06-14T04:34:09;4.67;;;2.70;;
59770;SDS011;45649;53.014;6.600;2023-06-14T04:36:41;3.03;;;2.70;;
59770;SDS011;45649;53.014;6.600;2023-06-14T04:39:17;2.93;;;2.60;;
59770;SDS011;45649;53.014;6.600;2023-06-14T04:41:43;4.07;;;2.87;;
59770;SDS011;45649;53.014;6.600;2023-06-14T04:44:10;7.53;;;2.97;;
59770;SDS011;45649;53.014;6.600;2023-06-14T04:46:37;2.83;;;2.60;;
59770;SDS011;45649;53.014;6.600;2023-06-14T04:49:11;3.63;;;3.33;;
59770;SDS011;45649;53.014;6.600;2023-06-14T04:51:43;7.07;;;3.00;;
59770;SDS011;45649;53.014;6.600;2023-06-14T04:54:11;6.40;;;2.50;;
59770;SDS011;45649;53.014;6.600;2023-06-14T04:56:43;6.50;;;2.60;;
59770;SDS011;45649;53.014;6.600;2023-06-14T04:59:10;5.20;;;2.80;;
59770;SDS011;45649;53.014;6.600;2023-06-14T05:01:36;3.20;;;2.80;;
59770;SDS011;45649;53.014;6.600;2023-06-14T05:04:02;4.63;;;3.13;;
59770;SDS011;45649;53.014;6.600;2023-06-14T05:06:28;3.83;;;2.63;;
59770;SDS011;45649;53.014;6.600;2023-06-14T05:08:55;5.20;;;3.07;;
59770;SDS011;45649;53.014;6.600;2023-06-14T05:11:21;5.37;;;3.20;;
59770;SDS011;45649;53.014;6.600;2023-06-14T05:13:49;3.27;;;2.83;;
59770;SDS011;45649;53.014;6.600;2023-06-14T05:16:15;3.00;;;2.80;;
59770;SDS011;45649;53.014;6.600;2023-06-14T05:18:42;4.80;;;3.03;;
59770;SDS011;45649;53.014;6.600;2023-06-14T05:21:08;3.97;;;2.97;;
59770;SDS011;45649;53.014;6.600;2023-06-14T05:23:33;5.53;;;3.23;;
59770;SDS011;45649;53.014;6.600;2023-06-14T05:25:59;5.73;;;3.03;;
59770;SDS011;45649;53.014;6.600;2023-06-14T05:28:27;4.57;;;3.20;;
59770;SDS011;45649;53.014;6.600;2023-06-14T05:30:53;4.93;;;2.70;;
59770;SDS011;45649;53.014;6.600;2023-06-14T05:33:19;5.93;;;3.50;;
59770;SDS011;45649;53.014;6.600;2023-06-14T05:35:44;5.17;;;3.73;;
59770;SDS011;45649;53.014;6.600;2023-06-14T05:38:10;6.40;;;2.90;;
59770;SDS011;45649;53.014;6.600;2023-06-14T05:40:36;3.63;;;3.13;;
59770;SDS011;45649;53.014;6.600;2023-06-14T05:43:01;3.10;;;2.80;;
59770;SDS011;45649;53.014;6.600;2023-06-14T05:45:27;4.50;;;3.10;;
59770;SDS011;45649;53.014;6.600;2023-06-14T05:47:53;3.30;;;3.10;;
59770;SDS011;45649;53.014;6.600;2023-06-14T05:50:20;5.03;;;3.27;;
59770;SDS011;45649;53.014;6.600;2023-06-14T05:52:46;5.17;;;3.30;;
59770;SDS011;45649;53.014;6.600;2023-06-14T05:55:11;5.73;;;3.20;;
59770;SDS011;45649;53.014;6.600;2023-06-14T05:57:37;3.67;;;2.60;;
59770;SDS011;45649;53.014;6.600;2023-06-14T06:00:03;3.27;;;2.97;;
59770;SDS011;45649;53.014;6.600;2023-06-14T06:02:39;3.80;;;3.47;;
59770;SDS011;45649;53.014;6.600;2023-06-14T06:05:11;4.57;;;2.97;;
59770;SDS011;45649;53.014;6.600;2023-06-14T06:07:37;4.97;;;3.10;;
59770;SDS011;45649;53.014;6.600;2023-06-14T06:10:05;3.30;;;3.00;;
59770;SDS011;45649;53.014;6.600;2023-06-14T06:12:31;5.33;;;3.00;;
59770;SDS011;45649;53.014;6.600;2023-06-14T06:14:58;3.40;;;3.10;;
59770;SDS011;45649;53.014;6.600;2023-06-14T06:17:24;4.60;;;2.80;;
59770;SDS011;45649;53.014;6.600;2023-06-14T06:19:50;3.87;;;3.10;;
59770;SDS011;45649;53.014;6.600;2023-06-14T06:22:16;3.60;;;2.90;;
59770;SDS011;45649;53.014;6.600;2023-06-14T06:24:42;4.30;;;3.07;;
59770;SDS011;45649;53.014;6.600;2023-06-14T06:27:08;6.33;;;3.20;;
59770;SDS011;45649;53.014;6.600;2023-06-14T06:29:34;5.60;;;2.50;;
59770;SDS011;45649;53.014;6.600;2023-06-14T06:32:00;3.67;;;3.00;;
59770;SDS011;45649;53.014;6.600;2023-06-14T06:34:27;3.47;;;3.03;;
59770;SDS011;45649;53.014;6.600;2023-06-14T06:36:52;5.70;;;3.17;;
59770;SDS011;45649;53.014;6.600;2023-06-14T06:39:18;4.10;;;2.63;;
59770;SDS011;45649;53.014;6.600;2023-06-14T06:41:44;6.00;;;2.73;;
59770;SDS011;45649;53.014;6.600;2023-06-14T06:44:10;4.53;;;2.87;;
59770;SDS011;45649;53.014;6.600;2023-06-14T06:46:36;3.23;;;2.93;;
59770;SDS011;45649;53.014;6.600;2023-06-14T06:49:09;4.47;;;2.73;;
59770;SDS011;45649;53.014;6.600;2023-06-14T06:51:37;3.80;;;2.70;;
59770;SDS011;45649;53.014;6.600;2023-06-14T06:54:07;4.17;;;2.63;;
59770;SDS011;45649;53.014;6.600;2023-06-14T06:56:33;4.50;;;2.70;;
59770;SDS011;45649;53.014;6.600;2023-06-14T06:58:59;3.07;;;2.30;;
59770;SDS011;45649;53.014;6.600;2023-06-14T07:01:25;3.70;;;2.50;;
59770;SDS011;45649;53.014;6.600;2023-06-14T07:03:51;3.17;;;2.43;;
59770;SDS011;45649;53.014;6.600;2023-06-14T07:06:17;4.33;;;2.60;;
59770;SDS011;45649;53.014;6.600;2023-06-14T07:08:44;3.27;;;2.43;;
59770;SDS011;45649;53.014;6.600;2023-06-14T07:11:09;4.63;;;2.83;;
59770;SDS011;45649;53.014;6.600;2023-06-14T07:13:35;2.63;;;2.40;;
59770;SDS011;45649;53.014;6.600;2023-06-14T07:16:04;3.53;;;2.50;;
59770;SDS011;45649;53.014;6.600;2023-06-14T07:18:30;5.30;;;2.40;;
59770;SDS011;45649;53.014;6.600;2023-06-14T07:20:56;3.40;;;2.40;;
59770;SDS011;45649;53.014;6.600;2023-06-14T07:23:22;3.20;;;2.10;;
59770;SDS011;45649;53.014;6.600;2023-06-14T07:25:48;3.90;;;2.50;;
59770;SDS011;45649;53.014;6.600;2023-06-14T07:28:15;3.80;;;3.10;;
59770;SDS011;45649;53.014;6.600;2023-06-14T07:30:42;2.53;;;2.30;;
59770;SDS011;45649;53.014;6.600;2023-06-14T07:33:07;2.43;;;2.27;;
59770;SDS011;45649;53.014;6.600;2023-06-14T07:35:33;2.53;;;2.27;;
59770;SDS011;45649;53.014;6.600;2023-06-14T07:37:59;6.53;;;2.50;;
59770;SDS011;45649;53.014;6.600;2023-06-14T07:40:25;4.00;;;2.10;;
59770;SDS011;45649;53.014;6.600;2023-06-14T07:42:51;2.50;;;2.30;;
59770;SDS011;45649;53.014;6.600;2023-06-14T07:45:19;4.50;;;2.10;;
59770;SDS011;45649;53.014;6.600;2023-06-14T07:47:45;3.90;;;2.40;;
59770;SDS011;45649;53.014;6.600;2023-06-14T07:50:10;3.43;;;2.33;;
59770;SDS011;45649;53.014;6.600;2023-06-14T07:52:36;4.13;;;2.90;;
59770;SDS011;45649;53.014;6.600;2023-06-14T07:55:02;2.73;;;2.27;;
59770;SDS011;45649;53.014;6.600;2023-06-14T07:57:28;2.10;;;2.00;;
59770;SDS011;45649;53.014;6.600;2023-06-14T07:59:54;2.40;;;2.20;;
59770;SDS011;45649;53.014;6.600;2023-06-14T08:02:20;3.37;;;2.20;;
59770;SDS011;45649;53.014;6.600;2023-06-14T08:04:46;6.23;;;2.20;;
59770;SDS011;45649;53.014;6.600;2023-06-14T08:07:13;2.20;;;2.00;;
59770;SDS011;45649;53.014;6.600;2023-06-14T08:09:39;3.63;;;2.23;;
59770;SDS011;45649;53.014;6.600;2023-06-14T08:12:06;3.27;;;2.17;;
59770;SDS011;45649;53.014;6.600;2023-06-14T08:14:35;2.67;;;2.30;;
59770;SDS011;45649;53.014;6.600;2023-06-14T08:17:01;3.70;;;2.10;;
59770;SDS011;45649;53.014;6.600;2023-06-14T08:19:27;5.17;;;2.23;;
59770;SDS011;45649;53.014;6.600;2023-06-14T08:21:53;4.50;;;2.17;;
59770;SDS011;45649;53.014;6.600;2023-06-14T08:24:23;2.63;;;2.13;;
59770;SDS011;45649;53.014;6.600;2023-06-14T08:26:55;3.33;;;1.90;;
59770;SDS011;45649;53.014;6.600;2023-06-14T08:29:21;3.87;;;2.20;;
59770;SDS011;45649;53.014;6.600;2023-06-14T08:31:47;4.33;;;2.20;;
59770;SDS011;45649;53.014;6.600;2023-06-14T08:34:13;4.43;;;2.27;;
59770;SDS011;45649;53.014;6.600;2023-06-14T08:36:39;3.20;;;2.40;;
59770;SDS011;45649;53.014;6.600;2023-06-14T08:39:04;3.90;;;2.20;;
59770;SDS011;45649;53.014;6.600;2023-06-14T08:41:31;4.87;;;2.07;;
59770;SDS011;45649;53.014;6.600;2023-06-14T08:43:57;3.47;;;2.17;;
59770;SDS011;45649;53.014;6.600;2023-06-14T08:46:25;3.20;;;2.20;;
59770;SDS011;45649;53.014;6.600;2023-06-14T08:48:52;6.13;;;2.20;;
59770;SDS011;45649;53.014;6.600;2023-06-14T08:51:24;2.43;;;2.10;;
59770;SDS011;45649;53.014;6.600;2023-06-14T08:53:52;4.67;;;2.10;;
59770;SDS011;45649;53.014;6.600;2023-06-14T08:56:23;2.47;;;2.00;;
59770;SDS011;45649;53.014;6.600;2023-06-14T08:58:52;3.50;;;2.13;;
59770;SDS011;45649;53.014;6.600;2023-06-14T09:01:19;3.00;;;2.20;;
59770;SDS011;45649;53.014;6.600;2023-06-14T09:03:46;3.57;;;1.80;;
59770;SDS011;45649;53.014;6.600;2023-06-14T09:06:16;2.67;;;2.17;;
59770;SDS011;45649;53.014;6.600;2023-06-14T09:08:45;5.03;;;1.90;;
59770;SDS011;45649;53.014;6.600;2023-06-14T09:11:13;4.10;;;2.23;;
59770;SDS011;45649;53.014;6.600;2023-06-14T09:13:41;2.40;;;2.20;;
59770;SDS011;45649;53.014;6.600;2023-06-14T09:16:07;3.80;;;2.10;;
59770;SDS011;45649;53.014;6.600;2023-06-14T09:18:52;3.53;;;1.97;;
59770;SDS011;45649;53.014;6.600;2023-06-14T09:21:19;2.50;;;2.20;;
59770;SDS011;45649;53.014;6.600;2023-06-14T09:23:46;2.00;;;1.80;;
59770;SDS011;45649;53.014;6.600;2023-06-14T09:28:47;2.90;;;2.10;;
59770;SDS011;45649;53.014;6.600;2023-06-14T09:31:18;5.00;;;2.17;;
59770;SDS011;45649;53.014;6.600;2023-06-14T09:33:45;3.63;;;2.17;;
59770;SDS011;45649;53.014;6.600;2023-06-14T09:36:16;6.37;;;2.10;;
59770;SDS011;45649;53.014;6.600;2023-06-14T09:38:59;3.17;;;2.10;;
59770;SDS011;45649;53.014;6.600;2023-06-14T09:41:39;3.63;;;1.93;;
59770;SDS011;45649;53.014;6.600;2023-06-14T09:44:06;1.87;;;1.77;;
59770;SDS011;45649;53.014;6.600;2023-06-14T09:46:34;4.87;;;2.50;;
59770;SDS011;45649;53.014;6.600;2023-06-14T09:49:02;2.80;;;1.80;;
59770;SDS011;45649;53.014;6.600;2023-06-14T09:51:28;2.47;;;1.93;;
59770;SDS011;45649;53.014;6.600;2023-06-14T09:54:01;2.60;;;2.00;;
59770;SDS011;45649;53.014;6.600;2023-06-14T09:56:34;2.00;;;1.80;;
59770;SDS011;45649;53.014;6.600;2023-06-14T09:59:02;3.20;;;1.83;;
59770;SDS011;45649;53.014;6.600;2023-06-14T10:01:30;3.03;;;2.40;;
59770;SDS011;45649;53.014;6.600;2023-06-14T10:04:03;2.27;;;1.93;;
59770;SDS011;45649;53.014;6.600;2023-06-14T10:06:30;2.63;;;1.93;;
59770;SDS011;45649;53.014;6.600;2023-06-14T10:08:57;3.83;;;2.07;;
59770;SDS011;45649;53.014;6.600;2023-06-14T10:11:25;2.57;;;2.00;;
59770;SDS011;45649;53.014;6.600;2023-06-14T10:13:51;2.97;;;2.07;;
59770;SDS011;45649;53.014;6.600;2023-06-14T10:19:02;2.33;;;2.10;;
59770;SDS011;45649;53.014;6.600;2023-06-14T10:24:24;1.77;;;1.67;;
59770;SDS011;45649;53.014;6.600;2023-06-14T10:26:58;3.70;;;1.80;;
59770;SDS011;45649;53.014;6.600;2023-06-14T10:29:26;2.17;;;1.73;;
59770;SDS011;45649;53.014;6.600;2023-06-14T10:31:57;5.33;;;1.73;;
59770;SDS011;45649;53.014;6.600;2023-06-14T10:39:29;3.37;;;1.60;;
59770;SDS011;45649;53.014;6.600;2023-06-14T10:41:56;5.03;;;1.50;;
59770;SDS011;45649;53.014;6.600;2023-06-14T10:46:48;1.50;;;1.40;;
59770;SDS011;45649;53.014;6.600;2023-06-14T10:49:18;2.97;;;1.63;;
59770;SDS011;45649;53.014;6.600;2023-06-14T10:51:45;2.77;;;1.53;;
59770;SDS011;45649;53.014;6.600;2023-06-14T10:54:15;4.17;;;1.63;;
59770;SDS011;45649;53.014;6.600;2023-06-14T10:56:48;2.27;;;1.70;;
59770;SDS011;45649;53.014;6.600;2023-06-14T10:59:18;5.50;;;1.60;;
59770;SDS011;45649;53.014;6.600;2023-06-14T11:01:58;4.27;;;1.30;;
59770;SDS011;45649;53.014;6.600;2023-06-14T11:10:43;2.17;;;1.37;;
59770;SDS011;45649;53.014;6.600;2023-06-14T11:13:12;1.80;;;1.57;;
59770;SDS011;45649;53.014;6.600;2023-06-14T11:15:38;1.63;;;1.37;;
59770;SDS011;45649;53.014;6.600;2023-06-14T11:18:08;2.43;;;1.50;;
59770;SDS011;45649;53.014;6.600;2023-06-14T11:20:36;2.00;;;1.37;;
59770;SDS011;45649;53.014;6.600;2023-06-14T11:23:02;5.33;;;1.70;;
59770;SDS011;45649;53.014;6.600;2023-06-14T11:25:29;2.60;;;1.40;;
59770;SDS011;45649;53.014;6.600;2023-06-14T11:27:55;1.60;;;1.50;;
59770;SDS011;45649;53.014;6.600;2023-06-14T11:30:22;2.70;;;1.43;;
59770;SDS011;45649;53.014;6.600;2023-06-14T11:32:49;2.03;;;1.70;;
59770;SDS011;45649;53.014;6.600;2023-06-14T11:35:17;1.97;;;1.80;;
59770;SDS011;45649;53.014;6.600;2023-06-14T11:37:43;1.57;;;1.30;;
59770;SDS011;45649;53.014;6.600;2023-06-14T11:40:09;2.80;;;1.63;;
59770;SDS011;45649;53.014;6.600;2023-06-14T11:42:37;2.13;;;1.60;;
59770;SDS011;45649;53.014;6.600;2023-06-14T11:45:04;1.90;;;1.80;;
59770;SDS011;45649;53.014;6.600;2023-06-14T11:47:32;2.17;;;1.70;;
59770;SDS011;45649;53.014;6.600;2023-06-14T11:49:59;4.17;;;1.60;;
59770;SDS011;45649;53.014;6.600;2023-06-14T11:52:25;6.27;;;2.43;;
59770;SDS011;45649;53.014;6.600;2023-06-14T11:54:51;3.03;;;1.70;;
59770;SDS011;45649;53.014;6.600;2023-06-14T11:57:18;2.10;;;1.60;;
59770;SDS011;45649;53.014;6.600;2023-06-14T11:59:44;5.13;;;1.77;;
59770;SDS011;45649;53.014;6.600;2023-06-14T12:02:13;1.93;;;1.53;;
59770;SDS011;45649;53.014;6.600;2023-06-14T12:04:43;2.33;;;1.40;;
59770;SDS011;45649;53.014;6.600;2023-06-14T12:10:04;1.87;;;1.77;;
59770;SDS011;45649;53.014;6.600;2023-06-14T12:12:34;2.70;;;1.90;;
59770;SDS011;45649;53.014;6.600;2023-06-14T12:15:03;2.70;;;1.73;;
59770;SDS011;45649;53.014;6.600;2023-06-14T12:17:35;5.17;;;1.80;;
59770;SDS011;45649;53.014;6.600;2023-06-14T12:20:10;2.97;;;1.60;;
59770;SDS011;45649;53.014;6.600;2023-06-14T12:22:51;3.90;;;1.60;;
59770;SDS011;45649;53.014;6.600;2023-06-14T12:28:14;2.40;;;1.53;;
59770;SDS011;45649;53.014;6.600;2023-06-14T12:30:39;1.73;;;1.63;;
59770;SDS011;45649;53.014;6.600;2023-06-14T12:33:05;2.97;;;1.70;;
59770;SDS011;45649;53.014;6.600;2023-06-14T12:35:33;5.20;;;1.67;;
59770;SDS011;45649;53.014;6.600;2023-06-14T12:37:59;2.93;;;1.80;;
59770;SDS011;45649;53.014;6.600;2023-06-14T12:40:25;2.33;;;1.80;;
59770;SDS011;45649;53.014;6.600;2023-06-14T12:42:51;1.60;;;1.50;;
59770;SDS011;45649;53.014;6.600;2023-06-14T12:45:17;2.70;;;1.60;;
59770;SDS011;45649;53.014;6.600;2023-06-14T12:47:43;2.10;;;1.67;;
59770;SDS011;45649;53.014;6.600;2023-06-14T12:50:08;2.93;;;1.60;;
59770;SDS011;45649;53.014;6.600;2023-06-14T12:52:34;1.60;;;1.50;;
59770;SDS011;45649;53.014;6.600;2023-06-14T12:55:01;2.63;;;1.30;;
59770;SDS011;45649;53.014;6.600;2023-06-14T12:57:28;2.47;;;1.53;;
59770;SDS011;45649;53.014;6.600;2023-06-14T12:59:54;3.13;;;1.80;;
59770;SDS011;45649;53.014;6.600;2023-06-14T13:02:20;1.77;;;1.60;;
59770;SDS011;45649;53.014;6.600;2023-06-14T13:04:47;3.07;;;1.70;;
59770;SDS011;45649;53.014;6.600;2023-06-14T13:07:13;2.80;;;1.60;;
59770;SDS011;45649;53.014;6.600;2023-06-14T13:09:40;2.13;;;1.60;;
59770;SDS011;45649;53.014;6.600;2023-06-14T13:12:06;2.63;;;1.40;;
59770;SDS011;45649;53.014;6.600;2023-06-14T13:14:33;2.37;;;1.50;;
59770;SDS011;45649;53.014;6.600;2023-06-14T13:16:59;1.70;;;1.43;;
59770;SDS011;45649;53.014;6.600;2023-06-14T13:19:25;2.27;;;1.40;;
59770;SDS011;45649;53.014;6.600;2023-06-14T13:21:50;2.50;;;1.30;;
59770;SDS011;45649;53.014;6.600;2023-06-14T13:24:16;1.70;;;1.60;;
59770;SDS011;45649;53.014;6.600;2023-06-14T13:26:42;4.53;;;1.50;;
59770;SDS011;45649;53.014;6.600;2023-06-14T13:29:08;2.07;;;1.50;;
59770;SDS011;45649;53.014;6.600;2023-06-14T13:31:34;2.53;;;1.73;;
59770;SDS011;45649;53.014;6.600;2023-06-14T13:33:59;1.57;;;1.47;;
59770;SDS011;45649;53.014;6.600;2023-06-14T13:36:25;1.50;;;1.40;;
59770;SDS011;45649;53.014;6.600;2023-06-14T13:38:51;1.70;;;1.40;;
59770;SDS011;45649;53.014;6.600;2023-06-14T13:41:18;4.23;;;1.70;;
59770;SDS011;45649;53.014;6.600;2023-06-14T13:43:43;1.87;;;1.50;;
59770;SDS011;45649;53.014;6.600;2023-06-14T13:46:09;1.77;;;1.60;;
59770;SDS011;45649;53.014;6.600;2023-06-14T13:48:35;1.57;;;1.47;;
59770;SDS011;45649;53.014;6.600;2023-06-14T13:51:00;1.63;;;1.50;;
59770;SDS011;45649;53.014;6.600;2023-06-14T13:53:29;2.40;;;1.63;;
59770;SDS011;45649;53.014;6.600;2023-06-14T13:55:54;1.63;;;1.53;;
59770;SDS011;45649;53.014;6.600;2023-06-14T13:58:23;2.13;;;1.80;;
59770;SDS011;45649;53.014;6.600;2023-06-14T14:00:49;4.40;;;1.73;;
59770;SDS011;45649;53.014;6.600;2023-06-14T14:03:14;2.53;;;1.83;;
59770;SDS011;45649;53.014;6.600;2023-06-14T14:05:40;3.37;;;1.90;;
59770;SDS011;45649;53.014;6.600;2023-06-14T14:08:06;2.17;;;1.70;;
59770;SDS011;45649;53.014;6.600;2023-06-14T14:10:32;2.10;;;1.60;;
59770;SDS011;45649;53.014;6.600;2023-06-14T14:12:58;1.90;;;1.80;;
59770;SDS011;45649;53.014;6.600;2023-06-14T14:15:24;1.60;;;1.50;;
59770;SDS011;45649;53.014;6.600;2023-06-14T14:17:50;1.80;;;1.50;;
59770;SDS011;45649;53.014;6.600;2023-06-14T14:20:16;1.73;;;1.63;;
59770;SDS011;45649;53.014;6.600;2023-06-14T14:22:42;6.70;;;1.70;;
59770;SDS011;45649;53.014;6.600;2023-06-14T14:25:08;3.47;;;1.70;;
59770;SDS011;45649;53.014;6.600;2023-06-14T14:27:35;1.70;;;1.60;;
59770;SDS011;45649;53.014;6.600;2023-06-14T14:30:02;1.87;;;1.70;;
59770;SDS011;45649;53.014;6.600;2023-06-14T14:32:28;1.60;;;1.50;;
59770;SDS011;45649;53.014;6.600;2023-06-14T14:34:54;1.80;;;1.60;;
59770;SDS011;45649;53.014;6.600;2023-06-14T14:37:20;1.73;;;1.63;;
59770;SDS011;45649;53.014;6.600;2023-06-14T14:39:46;3.53;;;1.77;;
59770;SDS011;45649;53.014;6.600;2023-06-14T14:42:12;1.67;;;1.57;;
59770;SDS011;45649;53.014;6.600;2023-06-14T14:44:38;2.17;;;1.50;;
59770;SDS011;45649;53.014;6.600;2023-06-14T14:47:06;1.80;;;1.70;;
59770;SDS011;45649;53.014;6.600;2023-06-14T14:49:32;2.00;;;1.50;;
59770;SDS011;45649;53.014;6.600;2023-06-14T14:51:57;1.90;;;1.80;;
59770;SDS011;45649;53.014;6.600;2023-06-14T14:54:23;2.00;;;1.90;;
59770;SDS011;45649;53.014;6.600;2023-06-14T14:56:50;2.80;;;1.70;;
59770;SDS011;45649;53.014;6.600;2023-06-14T14:59:16;3.33;;;1.60;;
59770;SDS011;45649;53.014;6.600;2023-06-14T15:01:43;2.30;;;1.90;;
59770;SDS011;45649;53.014;6.600;2023-06-14T15:04:09;3.20;;;1.80;;
59770;SDS011;45649;53.014;6.600;2023-06-14T15:06:35;2.73;;;2.00;;
59770;SDS011;45649;53.014;6.600;2023-06-14T15:09:01;2.63;;;1.73;;
59770;SDS011;45649;53.014;6.600;2023-06-14T15:11:26;1.70;;;1.60;;
59770;SDS011;45649;53.014;6.600;2023-06-14T15:13:52;1.60;;;1.50;;
59770;SDS011;45649;53.014;6.600;2023-06-14T15:16:19;2.03;;;1.63;;
59770;SDS011;45649;53.014;6.600;2023-06-14T15:18:44;2.23;;;1.60;;
59770;SDS011;45649;53.014;6.600;2023-06-14T15:21:10;3.53;;;1.63;;